createdAt,value
2022-10-31T00:01:20.638Z,23.70
2022-10-31T00:03:48.621Z,18.60
2022-10-31T00:06:19.132Z,22.83
2022-10-31T00:08:47.472Z,24.37
2022-10-31T00:11:14.352Z,15.63
2022-10-31T00:13:41.344Z,19.23
2022-10-31T00:16:15.322Z,18.63
2022-10-31T00:18:42.281Z,21.53
2022-10-31T00:21:09.228Z,19.40
2022-10-31T00:23:36.225Z,25.90
2022-10-31T00:26:05.006Z,24.00
2022-10-31T00:28:33.300Z,30.73
2022-10-31T00:31:05.344Z,22.07
2022-10-31T00:33:35.131Z,23.77
2022-10-31T00:36:02.167Z,22.77
2022-10-31T00:38:29.179Z,18.10
2022-10-31T00:40:56.202Z,15.70
2022-10-31T00:43:23.124Z,18.80
2022-10-31T00:45:50.038Z,17.17
2022-10-31T00:48:17.111Z,23.97
2022-10-31T00:50:44.059Z,24.77
2022-10-31T00:53:10.986Z,23.83
2022-10-31T00:55:37.870Z,11.77
2022-10-31T00:58:05.085Z,17.27
2022-10-31T01:00:32.281Z,27.57
2022-10-31T01:02:59.514Z,22.83
2022-10-31T01:05:26.735Z,19.20
2022-10-31T01:07:53.604Z,22.40
2022-10-31T01:10:20.465Z,24.57
2022-10-31T01:12:49.155Z,23.33
2022-10-31T01:15:21.105Z,25.40
2022-10-31T01:17:48.711Z,23.63
2022-10-31T01:20:16.655Z,25.40
2022-10-31T01:22:43.708Z,23.60
2022-10-31T01:25:13.504Z,15.47
2022-10-31T01:27:40.454Z,25.17
2022-10-31T01:30:08.125Z,20.10
2022-10-31T01:32:35.198Z,18.03
2022-10-31T01:35:02.170Z,14.40
2022-10-31T01:37:29.045Z,18.93
2022-10-31T01:39:55.906Z,16.00
2022-10-31T01:42:24.358Z,25.80
2022-10-31T01:44:53.828Z,21.17
2022-10-31T01:47:27.844Z,33.10
2022-10-31T01:49:58.758Z,21.60
2022-10-31T01:52:37.700Z,26.73
2022-10-31T01:55:12.688Z,24.30
2022-10-31T01:57:43.185Z,30.97
2022-10-31T02:00:11.625Z,13.43
2022-10-31T02:02:39.137Z,18.13
2022-10-31T02:05:10.327Z,16.00
2022-10-31T02:08:12.134Z,23.43
2022-10-31T02:10:39.286Z,24.83
2022-10-31T02:13:08.376Z,21.17
2022-10-31T02:15:37.379Z,17.57
2022-10-31T02:18:05.626Z,21.67
2022-10-31T02:20:49.270Z,20.07
2022-10-31T02:23:54.315Z,20.97
2022-10-31T02:27:07.452Z,18.10
2022-10-31T02:30:15.460Z,21.80
2022-10-31T02:33:13.115Z,26.00
2022-10-31T02:36:05.783Z,20.00
2022-10-31T02:39:34.766Z,27.83
2022-10-31T02:42:36.582Z,28.37
2022-10-31T02:45:33.197Z,20.53
2022-10-31T02:48:04.545Z,20.63
2022-10-31T02:50:35.199Z,28.07
2022-10-31T02:53:03.187Z,20.87
2022-10-31T02:55:50.253Z,27.60
2022-10-31T02:58:22.385Z,23.10
2022-10-31T03:01:26.409Z,24.40
2022-10-31T03:04:48.993Z,21.57
2022-10-31T03:07:54.264Z,28.17
2022-10-31T03:10:37.490Z,20.87
2022-10-31T03:13:25.715Z,27.23
2022-10-31T03:16:13.046Z,17.83
2022-10-31T03:18:51.586Z,26.63
2022-10-31T03:21:28.445Z,29.90
2022-10-31T03:23:57.800Z,26.77
2022-10-31T03:26:26.619Z,22.80
2022-10-31T03:29:02.859Z,22.60
2022-10-31T03:31:42.027Z,20.10
2022-10-31T03:34:11.114Z,32.00
2022-10-31T03:36:46.015Z,32.33
2022-10-31T03:39:15.710Z,24.43
2022-10-31T03:41:52.654Z,21.33
2022-10-31T03:44:22.664Z,20.13
2022-10-31T03:46:52.148Z,25.97
2022-10-31T03:49:19.114Z,24.03
2022-10-31T03:51:59.144Z,30.27
2022-10-31T03:54:55.370Z,16.43
2022-10-31T03:57:37.462Z,25.77
2022-10-31T04:00:14.141Z,20.03
2022-10-31T04:02:46.677Z,26.50
2022-10-31T04:05:18.435Z,24.80
2022-10-31T04:07:48.637Z,21.93
2022-10-31T04:10:17.647Z,22.73
2022-10-31T04:12:48.570Z,27.57
2022-10-31T04:15:15.776Z,28.93
2022-10-31T04:17:46.316Z,40.27
2022-10-31T04:20:17.550Z,20.23
2022-10-31T04:22:47.548Z,29.03
2022-10-31T04:25:14.513Z,33.97
2022-10-31T04:27:41.414Z,31.03
2022-10-31T04:30:09.147Z,27.00
2022-10-31T04:32:36.035Z,27.13
2022-10-31T04:35:03.050Z,47.17
2022-10-31T04:37:32.766Z,29.93
2022-10-31T04:39:59.602Z,26.13
2022-10-31T04:42:26.481Z,27.50
2022-10-31T04:44:57.497Z,28.87
2022-10-31T04:47:24.525Z,27.23
2022-10-31T04:49:51.354Z,27.80
2022-10-31T04:52:20.027Z,33.17
2022-10-31T04:54:51.156Z,25.23
2022-10-31T04:57:18.008Z,25.80
2022-10-31T04:59:50.646Z,25.10
2022-10-31T05:02:17.622Z,29.23
2022-10-31T05:04:44.496Z,20.40
2022-10-31T05:07:11.428Z,31.63
2022-10-31T05:09:38.589Z,30.80
2022-10-31T05:12:10.871Z,27.20
2022-10-31T05:14:37.688Z,26.63
2022-10-31T05:17:04.564Z,31.63
2022-10-31T05:19:31.495Z,29.30
2022-10-31T05:22:01.298Z,29.23
2022-10-31T05:24:28.235Z,29.43
2022-10-31T05:26:57.982Z,25.40
2022-10-31T05:29:24.923Z,28.20
2022-10-31T05:31:51.820Z,23.70
2022-10-31T05:34:18.867Z,38.03
2022-10-31T05:36:45.927Z,37.47
2022-10-31T05:39:14.498Z,27.13
2022-10-31T05:41:41.442Z,34.37
2022-10-31T05:44:08.380Z,25.83
2022-10-31T05:46:35.377Z,48.43
2022-10-31T05:49:02.974Z,44.77
2022-10-31T05:51:30.601Z,34.20
2022-10-31T05:53:57.448Z,35.87
2022-10-31T05:56:24.320Z,31.27
2022-10-31T05:58:51.223Z,32.40
2022-10-31T06:01:19.436Z,29.50
2022-10-31T06:03:46.532Z,31.53
2022-10-31T06:06:14.477Z,23.83
2022-10-31T06:08:41.673Z,23.13
2022-10-31T06:11:08.535Z,31.80
2022-10-31T06:13:35.472Z,28.07
2022-10-31T06:16:02.512Z,38.40
2022-10-31T06:18:29.329Z,28.03
2022-10-31T06:20:56.298Z,33.53
2022-10-31T06:23:23.139Z,31.40
2022-10-31T06:25:51.425Z,30.43
2022-10-31T06:28:18.685Z,40.43
2022-10-31T06:30:46.351Z,42.77
2022-10-31T06:33:13.240Z,53.10
2022-10-31T06:35:45.515Z,65.63
2022-10-31T06:38:12.496Z,56.30
2022-10-31T06:40:39.460Z,55.40
2022-10-31T06:43:06.394Z,59.90
2022-10-31T06:45:33.331Z,47.63
2022-10-31T06:48:17.550Z,41.40
2022-10-31T06:50:45.058Z,31.93
2022-10-31T06:53:12.376Z,29.97
2022-10-31T06:55:39.498Z,43.53
2022-10-31T06:58:06.721Z,33.40
2022-10-31T07:00:37.438Z,26.33
2022-10-31T07:03:07.192Z,30.97
2022-10-31T07:05:34.333Z,30.20
2022-10-31T07:08:04.139Z,34.13
2022-10-31T07:10:37.247Z,54.60
2022-10-31T07:13:10.746Z,58.70
2022-10-31T07:15:39.236Z,55.90
2022-10-31T07:18:08.435Z,52.43
2022-10-31T07:20:35.984Z,57.60
2022-10-31T07:23:03.474Z,46.37
2022-10-31T07:25:30.751Z,54.93
2022-10-31T07:27:57.842Z,57.30
2022-10-31T07:30:25.020Z,48.53
2022-10-31T07:32:52.394Z,45.20
2022-10-31T07:35:21.980Z,40.83
2022-10-31T07:37:49.777Z,46.00
2022-10-31T07:40:24.648Z,65.53
2022-10-31T07:42:55.289Z,39.50
2022-10-31T07:45:22.567Z,39.10
2022-10-31T07:47:53.809Z,46.77
2022-10-31T07:50:31.419Z,38.20
2022-10-31T07:53:07.071Z,36.83
2022-10-31T07:55:34.539Z,29.83
2022-10-31T07:58:08.551Z,35.17
2022-10-31T08:00:36.841Z,32.40
2022-10-31T08:03:05.171Z,30.93
2022-10-31T08:05:33.020Z,34.30
2022-10-31T08:08:00.186Z,38.90
2022-10-31T08:10:28.196Z,43.40
2022-10-31T08:13:04.220Z,44.07
2022-10-31T08:15:31.535Z,54.40
2022-10-31T08:17:59.297Z,42.90
2022-10-31T08:20:26.428Z,56.57
2022-10-31T08:23:12.638Z,36.20
2022-10-31T08:25:39.887Z,24.73
2022-10-31T08:28:07.899Z,32.10
2022-10-31T08:30:36.586Z,30.33
2022-10-31T08:33:06.429Z,25.70
2022-10-31T08:35:34.551Z,25.87
2022-10-31T08:38:02.684Z,18.80
2022-10-31T08:40:31.328Z,33.70
2022-10-31T08:43:03.350Z,25.17
2022-10-31T08:45:32.843Z,28.73
2022-10-31T08:48:05.227Z,26.20
2022-10-31T08:50:34.292Z,26.70
2022-10-31T08:53:09.161Z,24.60
2022-10-31T08:55:37.443Z,36.83
2022-10-31T08:58:10.486Z,31.73
2022-10-31T09:00:37.722Z,29.37
2022-10-31T09:03:14.129Z,34.27
2022-10-31T09:05:41.321Z,27.80
2022-10-31T09:08:14.779Z,29.20
2022-10-31T09:10:43.370Z,25.80
2022-10-31T09:13:18.618Z,32.10
2022-10-31T09:15:49.354Z,29.83
2022-10-31T09:18:19.251Z,33.03
2022-10-31T09:20:48.024Z,28.20
2022-10-31T09:23:20.434Z,29.80
2022-10-31T09:25:51.268Z,29.33
2022-10-31T09:28:21.005Z,34.90
2022-10-31T09:30:49.730Z,34.00
2022-10-31T09:33:16.603Z,22.57
2022-10-31T09:35:43.918Z,44.23
2022-10-31T09:38:13.175Z,33.13
2022-10-31T09:40:42.450Z,27.73
2022-10-31T09:44:06.541Z,24.83
2022-10-31T09:47:19.026Z,29.40
2022-10-31T09:50:27.324Z,32.00
2022-10-31T09:53:16.429Z,27.73
2022-10-31T09:56:36.503Z,28.83
2022-10-31T09:59:06.038Z,37.30
2022-10-31T10:01:57.506Z,26.77
2022-10-31T10:04:43.712Z,46.47
2022-10-31T10:07:42.790Z,30.13
2022-10-31T10:10:33.858Z,30.00
2022-10-31T10:13:40.374Z,27.73
2022-10-31T10:16:59.858Z,37.20
2022-10-31T10:19:41.403Z,41.17
2022-10-31T10:22:52.913Z,42.97
2022-10-31T10:25:34.693Z,36.60
2022-10-31T10:28:28.356Z,35.30
2022-10-31T10:31:11.432Z,35.40
2022-10-31T10:34:27.368Z,35.03
2022-10-31T10:37:11.022Z,44.57
2022-10-31T10:39:42.207Z,40.80
2022-10-31T10:42:32.716Z,38.10
2022-10-31T10:45:18.844Z,36.00
2022-10-31T10:47:56.203Z,40.03
2022-10-31T10:50:34.899Z,43.87
2022-10-31T10:54:04.171Z,46.87
2022-10-31T10:57:14.272Z,37.83
2022-10-31T10:59:41.312Z,43.07
2022-10-31T11:02:24.239Z,52.37
2022-10-31T11:04:56.672Z,33.93
2022-10-31T11:07:23.667Z,43.20
2022-10-31T11:09:50.729Z,46.50
2022-10-31T11:12:22.918Z,38.67
2022-10-31T11:15:01.201Z,41.43
2022-10-31T11:17:39.010Z,39.40
2022-10-31T11:20:26.864Z,35.83
2022-10-31T11:23:04.047Z,43.13
2022-10-31T11:25:30.969Z,44.57
2022-10-31T11:28:10.739Z,50.33
2022-10-31T11:30:55.635Z,49.03
2022-10-31T11:33:35.264Z,47.07
2022-10-31T11:36:35.058Z,37.83
2022-10-31T11:39:04.428Z,35.47
2022-10-31T11:41:34.763Z,43.93
2022-10-31T11:44:15.965Z,35.43
2022-10-31T11:46:57.096Z,33.47
2022-10-31T11:49:35.813Z,35.77
2022-10-31T11:52:07.590Z,36.27
2022-10-31T11:54:54.321Z,33.47
2022-10-31T11:57:33.207Z,44.73
2022-10-31T12:00:02.207Z,48.43
2022-10-31T12:02:29.174Z,39.13
2022-10-31T12:05:23.474Z,37.23
2022-10-31T12:07:50.835Z,40.10
2022-10-31T12:10:20.443Z,46.07
2022-10-31T12:13:18.827Z,29.37
2022-10-31T12:15:55.370Z,33.53
2022-10-31T12:19:06.529Z,38.57
2022-10-31T12:22:03.432Z,43.67
2022-10-31T12:25:11.920Z,39.93
2022-10-31T12:28:16.108Z,37.80
2022-10-31T12:30:51.514Z,56.37
2022-10-31T12:34:02.671Z,45.60
2022-10-31T12:37:04.143Z,47.47
2022-10-31T12:40:21.977Z,55.73
2022-10-31T12:43:25.840Z,55.47
2022-10-31T12:45:59.092Z,41.00
2022-10-31T12:49:06.532Z,43.33
2022-10-31T12:52:02.120Z,47.27
2022-10-31T12:55:10.437Z,40.80
2022-10-31T12:57:59.740Z,41.13
2022-10-31T13:00:30.495Z,52.63
2022-10-31T13:06:20.319Z,52.70
2022-10-31T13:09:02.677Z,45.43
2022-10-31T13:11:34.918Z,46.93
2022-10-31T13:14:27.829Z,53.60
2022-10-31T13:16:56.811Z,44.23
2022-10-31T13:19:28.713Z,52.07
2022-10-31T13:22:22.399Z,42.40
2022-10-31T13:25:03.076Z,39.17
2022-10-31T13:27:41.996Z,49.47
2022-10-31T13:30:19.278Z,51.53
2022-10-31T13:33:00.863Z,44.97
2022-10-31T13:35:44.665Z,51.63
2022-10-31T13:38:53.062Z,47.13
2022-10-31T13:41:22.640Z,40.20
2022-10-31T13:44:02.579Z,52.17
2022-10-31T13:46:40.598Z,43.13
2022-10-31T13:49:44.244Z,42.00
2022-10-31T13:52:22.920Z,46.43
2022-10-31T13:54:57.245Z,43.90
2022-10-31T13:57:42.718Z,43.30
2022-10-31T14:00:26.786Z,52.10
2022-10-31T14:02:57.579Z,39.50
2022-10-31T14:05:43.200Z,40.47
2022-10-31T14:08:21.846Z,37.80
2022-10-31T14:10:52.020Z,39.77
2022-10-31T14:13:38.433Z,59.13
2022-10-31T14:16:25.739Z,35.33
2022-10-31T14:19:03.461Z,43.60
2022-10-31T14:21:40.057Z,51.80
2022-10-31T14:24:45.413Z,52.20
2022-10-31T14:27:46.550Z,47.63
2022-10-31T14:30:19.044Z,43.57
2022-10-31T14:32:51.582Z,61.43
2022-10-31T14:35:21.332Z,67.17
2022-10-31T14:38:33.197Z,45.10
2022-10-31T14:41:16.726Z,42.73
2022-10-31T14:43:53.424Z,54.47
2022-10-31T14:46:58.353Z,40.77
2022-10-31T14:50:03.833Z,51.93
2022-10-31T14:52:31.234Z,50.83
2022-10-31T14:55:00.349Z,56.67
2022-10-31T14:57:34.084Z,44.73
2022-10-31T15:00:06.513Z,42.63
2022-10-31T15:03:19.826Z,36.20
2022-10-31T15:05:55.391Z,42.60
2022-10-31T15:09:07.510Z,40.27
2022-10-31T15:11:39.331Z,36.47
2022-10-31T15:14:31.211Z,43.50
2022-10-31T15:16:59.653Z,54.57
2022-10-31T15:19:29.709Z,45.00
2022-10-31T15:21:58.529Z,53.03
2022-10-31T15:24:44.531Z,42.80
2022-10-31T15:27:18.641Z,56.93
2022-10-31T15:29:53.488Z,54.10
2022-10-31T15:32:26.159Z,42.60
2022-10-31T15:34:54.261Z,48.63
2022-10-31T15:37:23.410Z,56.87
2022-10-31T15:39:51.010Z,41.23
2022-10-31T15:42:34.641Z,62.53
2022-10-31T15:45:26.519Z,53.87
2022-10-31T15:48:02.727Z,43.00
2022-10-31T15:50:41.640Z,45.10
2022-10-31T15:53:20.521Z,48.23
2022-10-31T15:56:01.852Z,49.43
2022-10-31T15:58:29.942Z,36.47
2022-10-31T16:01:21.090Z,36.30
2022-10-31T16:04:00.742Z,38.97
2022-10-31T16:06:27.955Z,45.00
2022-10-31T16:08:55.577Z,50.63
2022-10-31T16:11:24.822Z,48.23
2022-10-31T16:14:08.474Z,46.50
2022-10-31T16:16:45.400Z,41.90
2022-10-31T16:19:36.353Z,45.70
2022-10-31T16:22:11.066Z,42.97
2022-10-31T16:25:01.646Z,41.50
2022-10-31T16:27:32.227Z,41.20
2022-10-31T16:30:05.368Z,47.43
2022-10-31T16:32:36.811Z,64.23
2022-10-31T16:35:32.731Z,44.17
2022-10-31T16:37:59.709Z,64.47
2022-10-31T16:40:27.054Z,65.13
2022-10-31T16:42:54.521Z,44.53
2022-10-31T16:45:30.858Z,57.70
2022-10-31T16:48:07.331Z,62.13
2022-10-31T16:50:34.328Z,43.17
2022-10-31T16:53:13.493Z,48.07
2022-10-31T16:56:02.323Z,49.93
2022-10-31T16:58:32.369Z,41.27
2022-10-31T17:01:03.914Z,48.87
2022-10-31T17:03:31.461Z,50.40
2022-10-31T17:05:58.422Z,45.87
2022-10-31T17:08:26.133Z,46.73
2022-10-31T17:10:58.563Z,49.03
2022-10-31T17:13:31.272Z,41.43
2022-10-31T17:16:00.657Z,43.47
2022-10-31T17:18:28.184Z,48.23
2022-10-31T17:21:00.450Z,44.50
2022-10-31T17:23:28.804Z,41.10
2022-10-31T17:25:56.612Z,40.13
2022-10-31T17:28:23.658Z,42.27
2022-10-31T17:30:50.656Z,33.10
2022-10-31T17:33:18.165Z,31.70
2022-10-31T17:35:45.623Z,41.57
2022-10-31T17:38:12.959Z,35.60
2022-10-31T17:40:44.264Z,31.97
2022-10-31T17:43:11.890Z,30.60
2022-10-31T17:45:41.361Z,31.67
2022-10-31T17:48:11.621Z,30.20
2022-10-31T17:50:38.636Z,24.93
2022-10-31T17:53:05.614Z,39.00
2022-10-31T17:55:36.230Z,31.37
2022-10-31T17:58:04.810Z,29.63
2022-10-31T18:00:31.938Z,39.97
2022-10-31T18:02:59.313Z,31.47
2022-10-31T18:05:26.508Z,30.10
2022-10-31T18:07:53.456Z,33.10
2022-10-31T18:10:20.497Z,30.70
2022-10-31T18:12:48.895Z,30.17
2022-10-31T18:15:16.486Z,36.20
2022-10-31T18:17:43.893Z,31.40
2022-10-31T18:20:11.656Z,38.97
2022-10-31T18:22:38.573Z,38.10
2022-10-31T18:25:05.998Z,29.60
2022-10-31T18:27:32.943Z,28.00
2022-10-31T18:29:59.877Z,26.07
2022-10-31T18:32:26.937Z,38.23
2022-10-31T18:34:53.921Z,28.47
2022-10-31T18:37:21.188Z,42.10
2022-10-31T18:39:48.084Z,42.30
2022-10-31T18:42:15.075Z,27.97
2022-10-31T18:44:41.972Z,24.93
2022-10-31T18:47:09.001Z,22.97
2022-10-31T18:49:36.977Z,27.77
2022-10-31T18:52:05.178Z,30.73
2022-10-31T18:54:32.245Z,27.33
2022-10-31T18:56:59.444Z,26.67
2022-10-31T18:59:26.322Z,41.80
2022-10-31T19:01:53.406Z,35.00
2022-10-31T19:04:20.586Z,40.87
2022-10-31T19:06:47.525Z,29.83
2022-10-31T19:09:14.737Z,34.30
2022-10-31T19:11:42.060Z,41.73
2022-10-31T19:14:11.146Z,37.83
2022-10-31T19:16:38.064Z,40.50
2022-10-31T19:19:05.213Z,37.17
2022-10-31T19:21:32.592Z,30.17
2022-10-31T19:24:00.154Z,32.87
2022-10-31T19:26:28.109Z,28.77
2022-10-31T19:28:56.491Z,28.97
2022-10-31T19:31:23.754Z,31.23
2022-10-31T19:33:50.736Z,24.33
2022-10-31T19:36:19.145Z,33.20
2022-10-31T19:38:51.929Z,28.30
2022-10-31T19:41:24.673Z,27.17
2022-10-31T19:43:52.097Z,40.40
2022-10-31T19:46:33.813Z,37.20
2022-10-31T19:49:09.480Z,59.03
2022-10-31T19:51:36.776Z,51.10
2022-10-31T19:54:03.828Z,49.87
2022-10-31T19:56:31.264Z,40.33
2022-10-31T19:58:59.875Z,38.00
2022-10-31T20:01:26.971Z,36.30
2022-10-31T20:03:53.932Z,43.60
2022-10-31T20:06:47.270Z,42.93
2022-10-31T20:09:15.097Z,37.97
2022-10-31T20:11:44.273Z,35.90
2022-10-31T20:14:13.633Z,33.77
2022-10-31T20:16:40.612Z,41.73
2022-10-31T20:19:08.039Z,51.53
2022-10-31T20:21:39.755Z,53.83
2022-10-31T20:24:08.930Z,50.33
2022-10-31T20:26:36.701Z,26.57
2022-10-31T20:29:04.132Z,35.20
2022-10-31T20:31:34.045Z,32.03
2022-10-31T20:34:01.425Z,27.60
2022-10-31T20:36:31.441Z,29.83
2022-10-31T20:38:58.781Z,25.93
2022-10-31T20:41:26.356Z,31.80
2022-10-31T20:43:53.322Z,27.83
2022-10-31T20:46:24.798Z,31.30
2022-10-31T20:48:52.719Z,32.43
2022-10-31T20:51:26.451Z,36.10
2022-10-31T20:53:55.222Z,37.13
2022-10-31T20:56:24.554Z,32.27
2022-10-31T20:58:52.226Z,31.97
2022-10-31T21:01:22.766Z,27.10
2022-10-31T21:03:50.634Z,30.17
2022-10-31T21:06:18.700Z,29.00
2022-10-31T21:08:46.117Z,33.13
2022-10-31T21:11:16.572Z,20.27
2022-10-31T21:13:45.282Z,27.13
2022-10-31T21:16:14.593Z,26.63
2022-10-31T21:18:43.205Z,20.80
2022-10-31T21:21:15.616Z,23.23
2022-10-31T21:23:43.193Z,24.17
2022-10-31T21:26:13.621Z,22.63
2022-10-31T21:28:41.036Z,15.50
2022-10-31T21:31:13.537Z,23.13
2022-10-31T21:33:41.276Z,27.73
2022-10-31T21:36:08.868Z,25.17
2022-10-31T21:38:36.584Z,17.70
2022-10-31T21:41:08.624Z,17.20
2022-10-31T21:43:37.655Z,25.40
2022-10-31T21:46:10.168Z,10.00
2022-10-31T21:48:42.344Z,11.33
2022-10-31T21:51:14.695Z,15.23
2022-10-31T21:54:00.566Z,13.40
2022-10-31T21:56:28.334Z,13.37
2022-10-31T21:58:56.265Z,12.40
2022-10-31T22:01:24.977Z,14.73
2022-10-31T22:03:52.286Z,14.23
2022-10-31T22:06:19.330Z,17.80
2022-10-31T22:08:46.503Z,26.30
2022-10-31T22:11:16.832Z,23.43
2022-10-31T22:13:45.487Z,18.60
2022-10-31T22:16:15.081Z,21.17
2022-10-31T22:18:42.760Z,18.90
2022-10-31T22:21:16.883Z,26.30
2022-10-31T22:23:44.087Z,16.53
2022-10-31T22:26:16.341Z,19.60
2022-10-31T22:28:48.973Z,25.10
2022-10-31T22:31:20.480Z,21.00
2022-10-31T22:33:47.781Z,22.60
2022-10-31T22:36:18.337Z,35.10
2022-10-31T22:38:46.574Z,21.03
2022-10-31T22:41:19.707Z,24.00
2022-10-31T22:43:47.143Z,18.90
2022-10-31T22:46:20.016Z,23.23
2022-10-31T22:48:52.432Z,26.07
2022-10-31T22:51:33.628Z,19.60
2022-10-31T22:54:00.950Z,22.80
2022-10-31T22:56:31.235Z,24.80
2022-10-31T22:58:59.188Z,15.77
2022-10-31T23:01:29.287Z,13.33
2022-10-31T23:03:56.503Z,15.23
2022-10-31T23:06:25.822Z,17.63
2022-10-31T23:08:53.616Z,20.53
2022-10-31T23:11:27.247Z,15.73
2022-10-31T23:14:09.114Z,17.50
2022-10-31T23:16:56.983Z,32.10
2022-10-31T23:19:29.511Z,17.00
2022-10-31T23:22:02.479Z,25.37
2022-10-31T23:24:39.416Z,24.90
2022-10-31T23:27:21.245Z,18.70
2022-10-31T23:29:53.261Z,18.03
2022-10-31T23:32:35.377Z,21.73
2022-10-31T23:35:10.318Z,15.43
2022-10-31T23:37:38.756Z,18.10
2022-10-31T23:40:08.756Z,8.40
2022-10-31T23:42:36.032Z,14.10
2022-10-31T23:45:05.875Z,11.90
2022-10-31T23:47:32.685Z,10.23
2022-10-31T23:49:59.589Z,10.67
2022-10-31T23:52:26.535Z,13.37
2022-10-31T23:54:53.412Z,18.47
2022-10-31T23:57:20.350Z,12.70
2022-10-31T23:59:48.067Z,8.03
